Lerna, Illinois
Current Conditions -  °F | °C
As of 4:53 PM on Wednesday 17 Dec 2014 (Local Time) from KMTO Reporting Station
Overcast Overcast  
Wind Chill: 14°   Ceiling: 1200
Heat Index: 24°   Visibility: 9mi
Dew Point: 19°   Wind: 9mph
Humidity: 81%   Direction: 330°NNW
Pressure: 30.29"   Gusts: NA
Location:  39.42°N, 88.29°W
Report Text: KMTO 172253Z AUTO 33008KT 9SM OVC012 M04/M07 A3029 RMK AO2 SLP266 T10441072
Loading
Personal Weather Stations






























Interactive Weather Map New forecast layout! Learn more

10-Day Weather Forecast

Advertisements
Track Severe Weather on mobile